createdAt,value
2023-02-07T00:01:33.202Z,0.92
2023-02-07T00:04:00.380Z,0.93
2023-02-07T00:06:33.801Z,0.88
2023-02-07T00:09:03.120Z,0.58
2023-02-07T00:11:30.588Z,0.83
2023-02-07T00:13:58.888Z,0.77
2023-02-07T00:16:26.441Z,0.49
2023-02-07T00:18:55.036Z,0.84
2023-02-07T00:21:24.218Z,0.71
2023-02-07T00:23:53.149Z,0.71
2023-02-07T00:26:24.685Z,0.62
2023-02-07T00:28:53.971Z,0.61
2023-02-07T00:31:27.218Z,0.21
2023-02-07T00:33:56.938Z,0.59
2023-02-07T00:36:25.551Z,0.49
2023-02-07T00:38:56.633Z,0.63
2023-02-07T00:41:24.039Z,0.62
2023-02-07T00:43:51.355Z,0.69
2023-02-07T00:46:18.439Z,0.57
2023-02-07T00:48:45.677Z,0.62
2023-02-07T00:51:16.207Z,0.47
2023-02-07T00:53:45.523Z,0.41
2023-02-07T00:56:12.725Z,0.30
2023-02-07T00:58:40.096Z,0.37
2023-02-07T01:01:07.204Z,0.38
2023-02-07T01:03:34.282Z,0.47
2023-02-07T01:06:01.381Z,0.02
2023-02-07T01:08:28.463Z,-0.14
2023-02-07T01:10:55.533Z,-0.17
2023-02-07T01:13:22.569Z,0.71
2023-02-07T01:15:50.450Z,0.28
2023-02-07T01:18:17.493Z,0.64
2023-02-07T01:20:44.761Z,0.67
2023-02-07T01:23:13.222Z,0.84
2023-02-07T01:25:43.975Z,0.94
2023-02-07T01:28:11.956Z,0.88
2023-02-07T01:30:40.911Z,0.83
2023-02-07T01:33:08.994Z,0.85
2023-02-07T01:35:37.751Z,0.54
2023-02-07T01:38:05.752Z,0.60
2023-02-07T01:40:37.779Z,0.32
2023-02-07T01:43:06.706Z,0.26
2023-02-07T01:45:37.856Z,0.24
2023-02-07T01:48:14.959Z,0.13
2023-02-07T01:50:46.782Z,-0.27
2023-02-07T01:53:17.443Z,-0.01
2023-02-07T01:55:47.463Z,-0.26
2023-02-07T01:58:15.176Z,-0.16
2023-02-07T02:00:42.760Z,-0.33
2023-02-07T02:03:09.841Z,-0.50
2023-02-07T02:05:39.691Z,-0.45
2023-02-07T02:08:07.090Z,-0.56
2023-02-07T02:11:00.384Z,-0.65
2023-02-07T02:13:55.618Z,-0.65
2023-02-07T02:16:42.738Z,-0.62
2023-02-07T02:19:31.326Z,-0.61
2023-02-07T02:22:13.753Z,-0.70
2023-02-07T02:24:54.339Z,-0.72
2023-02-07T02:27:47.764Z,-0.71
2023-02-07T02:30:36.722Z,-0.74
2023-02-07T02:33:25.286Z,-0.76
2023-02-07T02:36:07.660Z,-0.87
2023-02-07T02:38:37.602Z,-0.87
2023-02-07T02:41:58.060Z,-0.91
2023-02-07T02:44:38.509Z,-0.95
2023-02-07T02:47:05.934Z,-1.00
2023-02-07T02:49:34.419Z,-1.21
2023-02-07T02:52:01.694Z,-1.00
2023-02-07T02:54:38.223Z,-1.02
2023-02-07T02:57:16.065Z,-1.01
2023-02-07T03:00:08.985Z,-1.41
2023-02-07T03:03:00.629Z,-2.10
2023-02-07T03:05:36.904Z,-1.46
2023-02-07T03:08:18.066Z,-1.01
2023-02-07T03:11:07.149Z,-1.01
2023-02-07T03:13:58.807Z,-1.11
2023-02-07T03:16:40.932Z,-0.87
2023-02-07T03:19:15.651Z,-2.34
2023-02-07T03:21:46.941Z,-1.12
2023-02-07T03:24:18.045Z,-0.83
2023-02-07T03:26:47.006Z,-0.83
2023-02-07T03:29:17.769Z,-0.91
2023-02-07T03:31:48.120Z,-0.79
2023-02-07T03:34:21.021Z,-0.71
2023-02-07T03:37:04.564Z,-0.78
2023-02-07T03:39:32.823Z,-1.00
2023-02-07T03:42:06.217Z,-1.73
2023-02-07T03:44:35.864Z,-1.52
2023-02-07T03:47:04.287Z,-1.04
2023-02-07T03:49:31.308Z,-1.23
2023-02-07T03:51:58.316Z,-1.16
2023-02-07T03:54:25.375Z,-1.15
2023-02-07T03:56:52.365Z,-1.12
2023-02-07T03:59:19.365Z,-1.35
2023-02-07T04:01:46.443Z,-1.28
2023-02-07T04:04:13.510Z,-2.21
2023-02-07T04:06:40.515Z,-1.27
2023-02-07T04:09:08.387Z,-1.31
2023-02-07T04:11:36.148Z,-1.46
2023-02-07T04:14:03.202Z,-1.23
2023-02-07T04:16:30.395Z,-1.22
2023-02-07T04:18:57.464Z,-1.25
2023-02-07T04:21:25.145Z,-1.29
2023-02-07T04:23:52.141Z,-1.37
2023-02-07T04:26:19.469Z,-1.61
2023-02-07T04:28:46.463Z,-1.98
2023-02-07T04:31:13.584Z,-1.79
2023-02-07T04:33:40.803Z,-1.84
2023-02-07T04:36:08.256Z,-1.88
2023-02-07T04:38:35.287Z,-1.49
2023-02-07T04:41:05.398Z,-1.79
2023-02-07T04:43:34.442Z,-1.55
2023-02-07T04:46:02.809Z,-1.65
2023-02-07T04:48:30.632Z,-2.29
2023-02-07T04:50:57.993Z,-1.46
2023-02-07T04:53:25.340Z,-1.33
2023-02-07T04:55:54.181Z,-1.42
2023-02-07T04:58:22.514Z,-1.48
2023-02-07T05:00:49.576Z,-3.67
2023-02-07T05:03:16.738Z,-1.56
2023-02-07T05:05:45.505Z,-2.57
2023-02-07T05:08:13.500Z,-1.89
2023-02-07T05:10:40.955Z,-2.54
2023-02-07T05:13:07.990Z,-1.93
2023-02-07T05:15:35.179Z,-2.03
2023-02-07T05:18:02.378Z,-2.06
2023-02-07T05:20:29.413Z,-1.94
2023-02-07T05:22:56.507Z,-1.68
2023-02-07T05:25:23.623Z,-1.67
2023-02-07T05:27:50.993Z,-1.65
2023-02-07T05:30:18.570Z,-1.71
2023-02-07T05:33:03.837Z,-2.10
2023-02-07T05:35:34.660Z,-1.55
2023-02-07T05:38:05.976Z,-2.27
2023-02-07T05:40:37.044Z,-1.79
2023-02-07T05:43:04.676Z,-1.95
2023-02-07T05:45:32.225Z,-2.46
2023-02-07T05:47:59.400Z,-2.20
2023-02-07T05:50:26.531Z,-2.12
2023-02-07T05:53:06.500Z,-2.06
2023-02-07T05:55:33.837Z,-2.03
2023-02-07T05:58:00.945Z,-2.08
2023-02-07T06:00:28.119Z,-2.15
2023-02-07T06:02:55.279Z,-2.15
2023-02-07T06:05:23.652Z,-2.20
2023-02-07T06:07:51.848Z,-2.43
2023-02-07T06:10:19.178Z,-2.25
2023-02-07T06:12:46.498Z,-2.13
2023-02-07T06:15:13.548Z,-2.15
2023-02-07T06:17:40.553Z,-2.24
2023-02-07T06:20:08.377Z,-2.26
2023-02-07T06:22:35.493Z,-2.41
2023-02-07T06:25:02.813Z,-2.69
2023-02-07T06:27:30.125Z,-2.41
2023-02-07T06:29:57.119Z,-2.51
2023-02-07T06:32:24.181Z,-2.46
2023-02-07T06:34:51.202Z,-2.48
2023-02-07T06:37:18.280Z,-2.51
2023-02-07T06:39:45.377Z,-2.77
2023-02-07T06:42:12.532Z,-2.52
2023-02-07T06:44:39.523Z,-2.48
2023-02-07T06:47:07.168Z,-2.48
2023-02-07T06:49:34.134Z,-2.42
2023-02-07T06:52:01.486Z,-2.47
2023-02-07T06:54:28.715Z,-2.48
2023-02-07T06:56:55.703Z,-2.44
2023-02-07T06:59:22.717Z,-2.37
2023-02-07T07:01:49.893Z,-2.48
2023-02-07T07:04:18.314Z,-2.66
2023-02-07T07:06:46.773Z,-2.52
2023-02-07T07:09:13.804Z,-2.54
2023-02-07T07:11:43.016Z,-2.53
2023-02-07T07:14:11.490Z,-2.61
2023-02-07T07:16:40.928Z,-2.47
2023-02-07T07:19:08.217Z,-3.20
2023-02-07T07:21:35.692Z,-2.41
2023-02-07T07:24:03.216Z,-2.35
2023-02-07T07:26:43.051Z,-2.27
2023-02-07T07:29:15.239Z,-2.21
2023-02-07T07:31:42.379Z,-2.08
2023-02-07T07:34:09.383Z,-1.98
2023-02-07T07:36:36.397Z,-1.93
2023-02-07T07:39:03.870Z,-1.82
2023-02-07T07:41:30.912Z,-1.80
2023-02-07T07:43:57.884Z,-1.80
2023-02-07T07:46:25.211Z,-1.80
2023-02-07T07:48:52.911Z,-1.70
2023-02-07T07:51:19.987Z,-1.55
2023-02-07T07:53:47.115Z,-1.84
2023-02-07T07:56:14.233Z,-1.19
2023-02-07T07:58:41.307Z,-1.05
2023-02-07T08:01:08.390Z,-1.12
2023-02-07T08:03:35.470Z,-1.07
2023-02-07T08:06:02.535Z,-0.84
2023-02-07T08:08:29.615Z,-0.81
2023-02-07T08:11:01.933Z,-1.06
2023-02-07T08:13:32.270Z,-0.56
2023-02-07T08:16:00.030Z,-0.36
2023-02-07T08:18:27.143Z,-0.20
2023-02-07T08:20:54.153Z,-0.07
2023-02-07T08:23:22.366Z,-0.08
2023-02-07T08:25:50.115Z,0.06
2023-02-07T08:28:18.147Z,0.14
2023-02-07T08:30:47.419Z,0.32
2023-02-07T08:33:16.274Z,0.36
2023-02-07T08:35:44.023Z,0.47
2023-02-07T08:38:11.803Z,0.08
2023-02-07T08:40:39.641Z,0.56
2023-02-07T08:43:12.141Z,0.68
2023-02-07T08:45:46.780Z,0.75
2023-02-07T08:48:14.372Z,0.79
2023-02-07T08:50:41.711Z,0.97
2023-02-07T08:53:09.025Z,1.08
2023-02-07T08:55:36.489Z,0.45
2023-02-07T08:58:03.486Z,1.23
2023-02-07T09:00:30.515Z,1.31
2023-02-07T09:02:57.612Z,1.30
2023-02-07T09:05:24.967Z,1.25
2023-02-07T09:07:51.937Z,1.32
2023-02-07T09:10:19.086Z,1.43
2023-02-07T09:12:46.072Z,1.33
2023-02-07T09:15:13.138Z,1.14
2023-02-07T09:17:40.525Z,1.31
2023-02-07T09:20:08.015Z,1.45
2023-02-07T09:22:54.995Z,1.50
2023-02-07T09:25:22.127Z,1.54
2023-02-07T09:27:50.401Z,1.61
2023-02-07T09:30:17.761Z,1.40
2023-02-07T09:32:44.781Z,1.76
2023-02-07T09:35:11.828Z,1.82
2023-02-07T09:37:48.887Z,1.98
2023-02-07T09:40:19.372Z,2.02
2023-02-07T09:42:57.483Z,1.92
2023-02-07T09:45:29.274Z,2.03
2023-02-07T09:48:04.532Z,2.15
2023-02-07T09:50:37.588Z,2.12
2023-02-07T09:53:16.335Z,2.19
2023-02-07T09:55:55.158Z,2.06
2023-02-07T09:58:43.759Z,2.25
2023-02-07T10:01:27.345Z,2.26
2023-02-07T10:04:26.576Z,2.47
2023-02-07T10:06:57.628Z,2.40
2023-02-07T10:09:32.524Z,2.59
2023-02-07T10:12:36.816Z,2.53
2023-02-07T10:15:16.959Z,2.74
2023-02-07T10:18:01.964Z,2.61
2023-02-07T10:20:36.624Z,2.29
2023-02-07T10:23:14.609Z,2.80
2023-02-07T10:26:06.399Z,2.78
2023-02-07T10:29:05.040Z,2.95
2023-02-07T10:31:37.678Z,3.00
2023-02-07T10:34:14.392Z,3.13
2023-02-07T10:36:53.542Z,3.21
2023-02-07T10:39:45.541Z,3.04
2023-02-07T10:42:15.770Z,3.22
2023-02-07T10:44:43.623Z,3.30
2023-02-07T10:47:16.628Z,3.03
2023-02-07T10:49:47.695Z,3.57
2023-02-07T10:52:27.680Z,3.63
2023-02-07T10:54:58.525Z,3.60
2023-02-07T10:57:27.737Z,3.67
2023-02-07T11:00:04.984Z,3.77
2023-02-07T11:02:32.128Z,3.71
2023-02-07T11:05:08.611Z,3.52
2023-02-07T11:07:47.164Z,3.31
2023-02-07T11:10:25.118Z,3.41
2023-02-07T11:12:57.078Z,3.59
2023-02-07T11:15:32.568Z,3.61
2023-02-07T11:17:59.596Z,3.62
2023-02-07T11:20:33.416Z,3.78
2023-02-07T11:23:03.809Z,3.80
2023-02-07T11:25:34.807Z,3.83
2023-02-07T11:28:02.195Z,3.77
2023-02-07T11:30:33.769Z,3.50
2023-02-07T11:33:04.498Z,3.49
2023-02-07T11:35:31.728Z,3.89
2023-02-07T11:38:13.273Z,3.75
2023-02-07T11:40:43.416Z,3.95
2023-02-07T11:43:19.260Z,3.99
2023-02-07T11:45:50.124Z,3.69
2023-02-07T11:48:25.634Z,4.03
2023-02-07T11:50:55.481Z,3.95
2023-02-07T11:53:28.110Z,3.57
2023-02-07T11:55:56.451Z,3.64
2023-02-07T11:58:35.071Z,4.08
2023-02-07T12:01:05.292Z,4.08
2023-02-07T12:03:41.116Z,4.10
2023-02-07T12:06:15.570Z,4.26
2023-02-07T12:08:44.085Z,4.28
2023-02-07T12:11:28.397Z,4.14
2023-02-07T12:14:13.641Z,3.91
2023-02-07T12:16:52.503Z,4.25
2023-02-07T12:19:24.547Z,4.10
2023-02-07T12:22:17.943Z,4.32
2023-02-07T12:24:51.756Z,4.33
2023-02-07T12:27:19.966Z,4.45
2023-02-07T12:30:01.922Z,4.37
2023-02-07T12:32:33.398Z,4.47
2023-02-07T12:35:15.867Z,4.58
2023-02-07T12:37:50.962Z,4.46
2023-02-07T12:40:36.932Z,4.63
2023-02-07T12:43:11.026Z,4.59
2023-02-07T12:46:00.280Z,4.58
2023-02-07T12:48:33.429Z,4.54
2023-02-07T12:51:29.637Z,4.62
2023-02-07T12:54:35.718Z,4.61
2023-02-07T12:57:02.632Z,4.65
2023-02-07T12:59:45.965Z,4.39
2023-02-07T13:02:40.401Z,4.70
2023-02-07T13:05:19.995Z,4.75
2023-02-07T13:08:19.972Z,4.75
2023-02-07T13:11:01.968Z,4.82
2023-02-07T13:14:35.788Z,4.85
2023-02-07T13:17:21.037Z,4.93
2023-02-07T13:20:00.159Z,4.87
2023-02-07T13:22:55.023Z,4.90
2023-02-07T13:25:27.240Z,4.88
2023-02-07T13:27:57.654Z,4.89
2023-02-07T13:30:30.238Z,4.94
2023-02-07T13:33:05.260Z,4.98
2023-02-07T13:35:38.479Z,4.98
2023-02-07T13:38:46.937Z,4.90
2023-02-07T13:41:33.762Z,4.95
2023-02-07T13:44:20.062Z,4.86
2023-02-07T13:47:01.350Z,4.90
2023-02-07T13:49:34.562Z,4.92
2023-02-07T13:52:10.903Z,4.91
2023-02-07T13:55:40.492Z,4.97
2023-02-07T13:58:51.430Z,4.97
2023-02-07T14:01:21.813Z,4.98
2023-02-07T14:04:19.617Z,4.99
2023-02-07T14:07:11.611Z,5.02
2023-02-07T14:09:44.882Z,4.90
2023-02-07T14:12:26.465Z,4.62
2023-02-07T14:15:02.677Z,4.79
2023-02-07T14:17:31.131Z,4.79
2023-02-07T14:20:00.113Z,4.84
2023-02-07T14:22:48.809Z,4.79
2023-02-07T14:25:24.576Z,4.77
2023-02-07T14:27:51.541Z,4.80
2023-02-07T14:30:23.032Z,4.82
2023-02-07T14:33:12.260Z,4.83
2023-02-07T14:36:02.556Z,4.82
2023-02-07T14:38:37.367Z,4.79
2023-02-07T14:41:14.048Z,4.85
2023-02-07T14:43:59.718Z,4.80
2023-02-07T14:46:39.476Z,4.85
2023-02-07T14:49:32.056Z,4.80
2023-02-07T14:52:05.033Z,4.68
2023-02-07T14:54:56.350Z,4.66
2023-02-07T14:57:46.954Z,4.67
2023-02-07T15:00:13.917Z,4.69
2023-02-07T15:03:04.972Z,4.63
2023-02-07T15:05:37.341Z,4.64
2023-02-07T15:08:06.153Z,4.62
2023-02-07T15:10:37.918Z,4.60
2023-02-07T15:13:17.241Z,4.27
2023-02-07T15:15:52.210Z,4.42
2023-02-07T15:18:22.113Z,4.44
2023-02-07T15:20:57.510Z,4.38
2023-02-07T15:23:30.373Z,4.35
2023-02-07T15:26:06.779Z,3.80
2023-02-07T15:28:34.133Z,4.29
2023-02-07T15:31:11.235Z,4.23
2023-02-07T15:33:47.651Z,4.26
2023-02-07T15:36:45.848Z,4.09
2023-02-07T15:39:23.121Z,4.17
2023-02-07T15:41:55.607Z,4.08
2023-02-07T15:44:27.219Z,4.01
2023-02-07T15:46:54.265Z,3.95
2023-02-07T15:49:32.368Z,3.49
2023-02-07T15:52:19.577Z,3.78
2023-02-07T15:54:51.172Z,3.73
2023-02-07T15:57:29.157Z,3.17
2023-02-07T16:00:02.679Z,2.88
2023-02-07T16:02:47.333Z,3.40
2023-02-07T16:05:37.893Z,2.95
2023-02-07T16:08:47.124Z,3.25
2023-02-07T16:11:26.113Z,3.07
2023-02-07T16:14:14.354Z,2.99
2023-02-07T16:16:51.690Z,2.66
2023-02-07T16:19:26.054Z,2.91
2023-02-07T16:22:15.255Z,2.76
2023-02-07T16:24:44.875Z,2.30
2023-02-07T16:27:17.926Z,2.43
2023-02-07T16:29:45.918Z,1.77
2023-02-07T16:32:16.860Z,2.48
2023-02-07T16:34:58.586Z,2.26
2023-02-07T16:37:28.637Z,2.32
2023-02-07T16:39:55.769Z,2.03
2023-02-07T16:42:25.903Z,1.72
2023-02-07T16:44:53.685Z,1.62
2023-02-07T16:47:23.601Z,2.09
2023-02-07T16:49:50.748Z,2.03
2023-02-07T16:52:18.069Z,1.66
2023-02-07T16:54:46.913Z,1.76
2023-02-07T16:57:14.960Z,1.77
2023-02-07T16:59:42.332Z,1.72
2023-02-07T17:02:16.269Z,1.66
2023-02-07T17:04:43.339Z,1.47
2023-02-07T17:07:11.554Z,1.22
2023-02-07T17:09:38.617Z,1.29
2023-02-07T17:12:07.223Z,1.17
2023-02-07T17:14:36.287Z,0.81
2023-02-07T17:17:03.490Z,0.34
2023-02-07T17:19:30.718Z,0.73
2023-02-07T17:21:57.858Z,0.11
2023-02-07T17:24:24.860Z,0.31
2023-02-07T17:26:54.319Z,0.78
2023-02-07T17:29:22.073Z,0.70
2023-02-07T17:31:49.529Z,0.64
2023-02-07T17:34:16.916Z,0.66
2023-02-07T17:36:48.212Z,0.33
2023-02-07T17:39:17.568Z,0.49
2023-02-07T17:41:44.821Z,0.58
2023-02-07T17:44:11.928Z,0.64
2023-02-07T17:46:38.994Z,0.38
2023-02-07T17:49:13.651Z,0.44
2023-02-07T17:51:40.788Z,-0.17
2023-02-07T17:54:08.274Z,0.12
2023-02-07T17:56:35.724Z,0.19
2023-02-07T17:59:05.737Z,0.40
2023-02-07T18:01:33.466Z,0.31
2023-02-07T18:04:02.464Z,0.08
2023-02-07T18:06:30.563Z,0.33
2023-02-07T18:08:58.850Z,0.19
2023-02-07T18:11:30.424Z,0.20
2023-02-07T18:13:57.812Z,0.04
2023-02-07T18:16:26.655Z,-0.95
2023-02-07T18:18:56.575Z,-0.08
2023-02-07T18:21:23.920Z,-0.57
2023-02-07T18:23:53.175Z,-0.17
2023-02-07T18:26:21.204Z,-0.17
2023-02-07T18:28:48.814Z,-0.18
2023-02-07T18:31:19.550Z,-0.20
2023-02-07T18:33:47.553Z,-0.35
2023-02-07T18:36:14.830Z,-0.30
2023-02-07T18:38:42.291Z,-0.38
2023-02-07T18:41:15.665Z,-0.38
2023-02-07T18:43:43.213Z,-0.42
2023-02-07T18:46:12.832Z,-0.75
2023-02-07T18:48:40.684Z,-0.47
2023-02-07T18:51:10.563Z,-0.52
2023-02-07T18:53:38.075Z,-0.91
2023-02-07T18:56:07.380Z,-0.64
2023-02-07T18:58:34.593Z,-0.56
2023-02-07T19:01:09.744Z,-0.55
2023-02-07T19:03:38.532Z,-0.51
2023-02-07T19:06:07.346Z,-0.67
2023-02-07T19:08:34.928Z,-0.57
2023-02-07T19:11:05.081Z,-0.65
2023-02-07T19:13:33.611Z,-0.88
2023-02-07T19:16:03.736Z,-0.71
2023-02-07T19:18:31.369Z,-1.05
2023-02-07T19:21:13.395Z,-0.89
2023-02-07T19:23:41.064Z,-0.64
2023-02-07T19:26:08.888Z,-0.66
2023-02-07T19:28:37.287Z,-0.77
2023-02-07T19:31:08.032Z,-0.83
2023-02-07T19:33:36.071Z,-0.94
2023-02-07T19:36:08.725Z,-1.22
2023-02-07T19:38:36.431Z,-1.03
2023-02-07T19:41:04.295Z,-1.54
2023-02-07T19:43:31.711Z,-1.59
2023-02-07T19:45:59.578Z,-1.16
2023-02-07T19:48:26.845Z,-1.17
2023-02-07T19:51:01.735Z,-1.19
2023-02-07T19:53:29.708Z,-1.04
2023-02-07T19:56:05.686Z,-1.16
2023-02-07T19:58:33.661Z,-1.46
2023-02-07T20:01:01.973Z,-1.58
2023-02-07T20:03:29.148Z,-1.24
2023-02-07T20:06:00.210Z,-1.31
2023-02-07T20:08:27.772Z,-1.39
2023-02-07T20:10:54.823Z,-1.42
2023-02-07T20:13:21.957Z,-1.68
2023-02-07T20:15:48.973Z,-1.48
2023-02-07T20:18:16.022Z,-1.43
2023-02-07T20:20:46.604Z,-1.83
2023-02-07T20:23:15.098Z,-1.83
2023-02-07T20:25:42.130Z,-1.45
2023-02-07T20:28:09.150Z,-1.48
2023-02-07T20:30:42.362Z,-2.26
2023-02-07T20:33:09.494Z,-2.16
2023-02-07T20:35:37.947Z,-1.62
2023-02-07T20:38:04.951Z,-1.60
2023-02-07T20:40:32.755Z,-1.54
2023-02-07T20:42:59.745Z,-1.55
2023-02-07T20:45:28.279Z,-1.57
2023-02-07T20:47:55.394Z,-1.68
2023-02-07T20:50:22.714Z,-1.68
2023-02-07T20:52:49.933Z,-1.87
2023-02-07T20:55:17.168Z,-2.03
2023-02-07T20:57:44.380Z,-1.76
2023-02-07T21:00:12.004Z,-2.11
2023-02-07T21:02:40.082Z,-1.79
2023-02-07T21:05:07.359Z,-1.68
2023-02-07T21:07:34.465Z,-1.68
2023-02-07T21:10:01.745Z,-1.97
2023-02-07T21:12:29.067Z,-1.78
2023-02-07T21:14:57.459Z,-1.92
2023-02-07T21:17:24.604Z,-1.83
2023-02-07T21:19:51.709Z,-2.12
2023-02-07T21:22:19.055Z,-1.70
2023-02-07T21:24:47.402Z,-1.81
2023-02-07T21:27:14.541Z,-1.95
2023-02-07T21:29:41.639Z,-1.98
2023-02-07T21:32:08.941Z,-2.05
2023-02-07T21:34:36.160Z,-1.84
2023-02-07T21:37:03.201Z,-2.37
2023-02-07T21:39:30.328Z,-2.86
2023-02-07T21:41:58.708Z,-2.06
2023-02-07T21:44:25.779Z,-2.10
2023-02-07T21:46:52.846Z,-2.54
2023-02-07T21:49:20.830Z,-2.09
2023-02-07T21:51:49.421Z,-2.46
2023-02-07T21:54:16.740Z,-2.16
2023-02-07T21:56:44.439Z,-2.20
2023-02-07T21:59:17.091Z,-2.21
2023-02-07T22:01:45.258Z,-2.26
2023-02-07T22:04:14.199Z,-2.21
2023-02-07T22:06:43.876Z,-2.33
2023-02-07T22:09:15.696Z,-2.06
2023-02-07T22:11:43.156Z,-2.10
2023-02-07T22:14:13.458Z,-2.10
2023-02-07T22:16:40.809Z,-2.19
2023-02-07T22:19:11.211Z,-2.32
2023-02-07T22:21:38.417Z,-2.71
2023-02-07T22:24:06.347Z,-2.60
2023-02-07T22:26:34.654Z,-3.12
2023-02-07T22:29:03.012Z,-2.70
2023-02-07T22:31:32.066Z,-2.55
2023-02-07T22:34:07.862Z,-3.07
2023-02-07T22:36:37.605Z,-2.60
2023-02-07T22:39:06.763Z,-3.34
2023-02-07T22:41:35.401Z,-2.74
2023-02-07T22:44:03.385Z,-2.73
2023-02-07T22:46:30.572Z,-2.76
2023-02-07T22:48:58.034Z,-2.74
2023-02-07T22:51:32.201Z,-2.77
2023-02-07T22:54:03.684Z,-2.77
2023-02-07T22:56:31.319Z,-2.87
2023-02-07T22:58:58.310Z,-2.79
2023-02-07T23:01:34.546Z,-2.83
2023-02-07T23:04:03.389Z,-2.86
2023-02-07T23:06:32.409Z,-3.10
2023-02-07T23:09:00.240Z,-2.94
2023-02-07T23:11:27.279Z,-2.89
2023-02-07T23:13:55.375Z,-2.85
2023-02-07T23:16:28.278Z,-2.88
2023-02-07T23:18:57.140Z,-2.96
2023-02-07T23:21:25.792Z,-2.79
2023-02-07T23:23:53.722Z,-2.86
2023-02-07T23:26:22.909Z,-2.93
2023-02-07T23:28:51.373Z,-2.97
2023-02-07T23:31:20.486Z,-2.99
2023-02-07T23:33:48.296Z,-3.12
2023-02-07T23:36:17.719Z,-3.05
2023-02-07T23:38:46.817Z,-3.12
2023-02-07T23:41:14.393Z,-3.16
2023-02-07T23:43:42.167Z,-3.11
2023-02-07T23:46:17.647Z,-3.12
2023-02-07T23:48:45.516Z,-3.45
2023-02-07T23:51:13.648Z,-3.12
2023-02-07T23:53:42.029Z,-3.14
2023-02-07T23:56:10.977Z,-3.17
2023-02-07T23:58:39.141Z,-3.14
